This is the latest recevied weather packets stored in our database for station/object HRYR. If no packets are shown the sender has not sent any weather packets the latest 1 day(s).
| Time | Temp. | Humidity | Pressure | Rain* | Wind** | Luminosity | Snow |
|---|---|---|---|---|---|---|---|
| 1778430203 | 25° C | 53% | 1019 hPa | - | - | - | - |
| 1778428407 | 25° C | 53% | 1018 hPa | - | - | - | - |
| 1778427207 | 25.56° C | 50% | 1017 hPa | - | - | - | - |
| 1778426006 | 25.56° C | 50% | 1017 hPa | - | - | - | - |
| 1778424204 | 26.67° C | 47% | 1017 hPa | - | - | - | - |
| 1778423608 | 26.67° C | 47% | 1017 hPa | - | - | - | - |
| 1778421804 | 25.56° C | 50% | 1017 hPa | - | - | - | - |
| 1778421202 | 26.67° C | 44% | 1018 hPa | - | - | - | - |
| 1778419405 | 26.67° C | 51% | 1018 hPa | - | - | - | - |
| 1778417606 | 26.67° C | 51% | 1018 hPa | - | - | - | - |
| 1778415204 | 25.56° C | 50% | 1019 hPa | - | - | - | - |
| 1778411007 | 25.56° C | 54% | 1020 hPa | - | - | - | - |
| 1778410406 | 25° C | 65% | 1020 hPa | - | - | - | - |
| 1778409803 | 25° C | 65% | 1020 hPa | - | - | - | - |
| 1778408004 | 25° C | 61% | 1021 hPa | - | - | - | - |
| 1778407406 | 25° C | 61% | 1021 hPa | - | - | - | - |
| 1778403801 | 23.89° C | 64% | 1022 hPa | - | - | - | - |
| 1778402602 | 22.78° C | 69% | 1023 hPa | - | - | - | - |
| 1778402003 | 22.78° C | 69% | 1023 hPa | - | - | - | - |
| 1778399602 | 21.67° C | 68% | 1023 hPa | - | - | - | - |
| 1778399005 | 21.67° C | 68% | 1023 hPa | - | - | - | - |
| 1778398405 | 21.67° C | 68% | 1023 hPa | - | - | - | - |
| 1778397206 | 20.56° C | 77% | 1023 hPa | - | - | - | - |
| 1778396006 | 20° C | 88% | 1023 hPa | - | - | - | - |
| 1778395404 | 20° C | 88% | 1023 hPa | - | - | - | - |
* Rain since midnight (hover to see other rain measurements)
** Current wind speed in m/s (hover to see current wind gust speed)